Terminal Aerodrome Forecast
Issued by NWS

Home | Current Version | Previous Version | Text Only | Print | Product List | Glossary On
Versions: 1 2 3 4 5 6 7 8 9 10 11 12 13 14
965
FTUS46 KLOX 232346
TAFBUR
TAF
KBUR 232346Z 2400/2424 18011KT 6SM FU OVC100
     FM240100 12007KT 6SM FU SKC
     FM240600 VRB03KT 6SM FU SKC
     FM241000 14005KT 5SM FU SCT040
     FM241800 16008KT 6SM HZ SKC=

USA.gov is the U.S. government's official web portal to all federal, state and local government web resources and services.